MMHO

General Ignacio P. Garcia International Airport

Hermosillo, Mexico
TAF COR MMHO 260519Z 2606/2706 24005KT P6SM BKN250 FM261800 24010KT P6SM BKN250 FM270200 24005KT P6SM BKN250
Issued Valid From Valid To
Apr-26 @ 05:19 UTC
(42 minutes ago)
Apr-26 @ 06:00 UTC
(a minute ago)
Apr-27 @ 06:00 UTC
(in 24 hours)
Apr-26 @ 06:00 to Apr-26 @ 18:00
TAF COR MMHO 260519Z 2606/2706 24005KT P6SM BKN250
Wind Visibility Clouds
240° at 5 knots Greater than 6 miles
  • Broken at 25,000' AGL
From Apr-26 @ 18:00 to Apr-27 @ 02:00
FM261800 24010KT P6SM BKN250
Wind Visibility Clouds
240° at 10 knots Greater than 6 miles
  • Broken at 25,000' AGL
From Apr-27 @ 02:00 to Apr-27 @ 06:00
FM270200 24005KT P6SM BKN250
Wind Visibility Clouds
240° at 5 knots Greater than 6 miles
  • Broken at 25,000' AGL
TAF COR MMHO 260519Z 2606/2706 24005KT P6SM BKN250 FM261800 24010KT P6SM BKN250 FM270200 24005KT P6SM BKN250
Issued Apr-26 @ 05:19 UTC
(42 minutes ago)
Valid From Apr-26 @ 06:00 UTC
(a minute ago)
Valid To Apr-27 @ 06:00 UTC
(in 24 hours)
Apr-26 @ 06:00 - Apr-26 @ 18:00
Wind Visibility
240° at 5 knots Greater than 6 miles
Clouds
  • Broken at 25,000' AGL
From Apr-26 @ 18:00 - Apr-27 @ 02:00
Wind Visibility
240° at 10 knots Greater than 6 miles
Clouds
  • Broken at 25,000' AGL
From Apr-27 @ 02:00 - Apr-27 @ 06:00
Wind Visibility
240° at 5 knots Greater than 6 miles
Clouds
  • Broken at 25,000' AGL